createdAt,value
2022-08-22T00:00:54.145Z,60.71
2022-08-22T00:02:46.232Z,55.40
2022-08-22T00:02:54.798Z,58.83
2022-08-22T00:02:56.172Z,58.60
2022-08-22T00:03:06.939Z,60.34
2022-08-22T00:03:07.364Z,58.84
2022-08-22T00:03:33.208Z,60.61
2022-08-22T00:06:24.347Z,60.98
2022-08-22T00:09:05.058Z,61.00
2022-08-22T00:11:47.435Z,61.48
2022-08-22T00:14:37.659Z,61.36
2022-08-22T00:17:34.899Z,61.36
2022-08-22T00:20:20.416Z,61.47
2022-08-22T00:23:14.257Z,61.23
2022-08-22T00:25:56.776Z,61.92
2022-08-22T00:28:31.602Z,61.42
2022-08-22T00:31:09.651Z,61.74
2022-08-22T00:33:47.349Z,62.08
2022-08-22T00:36:29.540Z,61.75
2022-08-22T00:39:38.155Z,62.42
2022-08-22T00:42:31.815Z,62.03
2022-08-22T00:45:33.949Z,62.38
2022-08-22T00:48:17.892Z,62.12
2022-08-22T00:51:31.428Z,62.90
2022-08-22T00:54:17.508Z,62.82
2022-08-22T00:57:09.434Z,62.93
2022-08-22T01:00:01.181Z,63.28
2022-08-22T01:02:40.772Z,62.37
2022-08-22T01:05:28.684Z,62.27
2022-08-22T01:08:15.383Z,62.13
2022-08-22T01:11:03.775Z,62.50
2022-08-22T01:13:48.544Z,62.49
2022-08-22T01:16:37.993Z,62.48
2022-08-22T01:19:48.839Z,62.31
2022-08-22T01:22:44.669Z,61.97
2022-08-22T01:25:53.419Z,62.45
2022-08-22T01:28:46.650Z,62.45
2022-08-22T01:32:11.564Z,63.35
2022-08-22T01:35:05.251Z,63.29
2022-08-22T01:38:21.880Z,63.41
2022-08-22T01:41:32.259Z,62.97
2022-08-22T01:44:25.450Z,62.78
2022-08-22T01:47:11.083Z,63.33
2022-08-22T01:49:45.819Z,62.96
2022-08-22T01:52:20.503Z,62.39
2022-08-22T01:54:55.322Z,63.31
2022-08-22T01:57:24.687Z,62.32
2022-08-22T01:59:56.041Z,62.58
2022-08-22T02:02:49.460Z,63.54
2022-08-22T02:05:27.297Z,63.05
2022-08-22T02:08:03.509Z,63.70
2022-08-22T02:10:49.494Z,63.11
2022-08-22T02:13:32.967Z,63.01
2022-08-22T02:16:15.580Z,63.06
2022-08-22T02:19:13.853Z,63.27
2022-08-22T02:21:48.734Z,62.64
2022-08-22T02:24:30.609Z,63.24
2022-08-22T02:27:12.425Z,63.31
2022-08-22T02:29:48.806Z,63.23
2022-08-22T02:32:26.238Z,63.02
2022-08-22T02:35:03.687Z,62.92
2022-08-22T02:37:38.958Z,63.55
2022-08-22T02:40:27.542Z,63.97
2022-08-22T02:43:04.156Z,63.29
2022-08-22T02:45:39.368Z,63.30
2022-08-22T02:48:19.486Z,63.26
2022-08-22T02:50:57.376Z,63.62
2022-08-22T02:53:38.828Z,63.67
2022-08-22T02:56:16.259Z,63.10
2022-08-22T02:58:51.355Z,63.55
2022-08-22T03:01:38.718Z,63.71
2022-08-22T03:04:26.977Z,63.49
2022-08-22T03:07:09.927Z,63.44
2022-08-22T03:09:49.949Z,63.64
2022-08-22T03:12:32.657Z,63.55
2022-08-22T03:15:09.847Z,63.66
2022-08-22T03:17:49.305Z,63.99
2022-08-22T03:20:43.413Z,63.47
2022-08-22T03:23:21.328Z,63.74
2022-08-22T03:26:02.244Z,64.49
2022-08-22T03:28:59.164Z,64.16
2022-08-22T03:31:30.223Z,63.97
2022-08-22T03:34:23.192Z,64.46
2022-08-22T03:37:04.558Z,64.28
2022-08-22T03:40:04.309Z,65.08
2022-08-22T03:43:08.115Z,64.38
2022-08-22T03:46:28.063Z,64.30
2022-08-22T03:49:22.612Z,64.21
2022-08-22T03:52:12.680Z,63.89
2022-08-22T03:55:17.863Z,64.17
2022-08-22T03:58:04.251Z,64.22
2022-08-22T04:01:01.459Z,64.37
2022-08-22T04:04:02.625Z,64.58
2022-08-22T04:07:14.267Z,64.36
2022-08-22T04:10:31.583Z,64.63
2022-08-22T04:13:40.609Z,64.14
2022-08-22T04:16:31.508Z,64.71
2022-08-22T04:19:29.716Z,64.86
2022-08-22T04:22:25.289Z,64.40
2022-08-22T04:25:04.688Z,64.02
2022-08-22T04:27:42.577Z,64.10
2022-08-22T04:30:21.273Z,63.65
2022-08-22T04:32:54.620Z,64.09
2022-08-22T04:35:33.015Z,64.49
2022-08-22T04:38:09.446Z,64.41
2022-08-22T04:40:45.097Z,65.08
2022-08-22T04:43:31.401Z,64.77
2022-08-22T04:46:08.246Z,65.18
2022-08-22T04:48:42.696Z,64.43
2022-08-22T04:51:20.103Z,65.38
2022-08-22T04:54:08.144Z,64.91
2022-08-22T04:56:44.919Z,64.73
2022-08-22T04:59:17.252Z,64.38
2022-08-22T05:01:48.095Z,64.29
2022-08-22T05:04:23.452Z,64.25
2022-08-22T05:06:54.773Z,64.83
2022-08-22T05:09:31.996Z,64.41
2022-08-22T05:12:05.911Z,64.52
2022-08-22T05:14:42.622Z,64.92
2022-08-22T05:17:17.149Z,64.70
2022-08-22T05:19:50.724Z,64.90
2022-08-22T05:22:22.870Z,65.12
2022-08-22T05:24:57.434Z,64.16
2022-08-22T05:27:29.371Z,64.21
2022-08-22T05:30:04.008Z,64.95
2022-08-22T05:32:40.594Z,64.36
2022-08-22T05:35:10.994Z,64.74
2022-08-22T05:37:44.296Z,64.37
2022-08-22T05:40:21.104Z,64.60
2022-08-22T05:42:50.664Z,64.04
2022-08-22T05:45:20.297Z,64.04
2022-08-22T05:47:53.354Z,63.90
2022-08-22T05:50:29.211Z,64.22
2022-08-22T05:53:06.333Z,63.91
2022-08-22T05:55:49.119Z,64.55
2022-08-22T05:58:44.394Z,64.17
2022-08-22T06:01:24.578Z,64.11
2022-08-22T06:04:06.078Z,63.76
2022-08-22T06:06:40.631Z,63.37
2022-08-22T06:09:24.602Z,64.23
2022-08-22T06:12:18.206Z,63.34
2022-08-22T06:15:11.681Z,63.19
2022-08-22T06:17:47.988Z,62.61
2022-08-22T06:20:21.698Z,62.43
2022-08-22T06:22:58.306Z,62.22
2022-08-22T06:25:34.888Z,62.01
2022-08-22T06:28:13.031Z,61.80
2022-08-22T06:30:48.247Z,61.38
2022-08-22T06:36:36.324Z,60.51
2022-08-22T06:39:13.956Z,60.29
2022-08-22T06:41:54.264Z,60.24
2022-08-22T06:44:30.668Z,60.03
2022-08-22T06:47:02.278Z,60.07
2022-08-22T06:49:34.971Z,59.86
2022-08-22T06:52:10.224Z,59.85
2022-08-22T06:54:50.250Z,59.93
2022-08-22T06:57:29.977Z,59.92
2022-08-22T07:00:04.796Z,59.67
2022-08-22T07:02:43.245Z,59.48
2022-08-22T07:05:20.886Z,59.61
2022-08-22T07:07:51.607Z,59.59
2022-08-22T07:10:23.739Z,59.63
2022-08-22T07:12:55.415Z,59.51
2022-08-22T07:15:50.640Z,59.48
2022-08-22T07:21:13.506Z,58.84
2022-08-22T07:23:48.955Z,58.82
2022-08-22T07:26:31.460Z,58.91
2022-08-22T07:29:10.701Z,58.43
2022-08-22T07:31:51.849Z,58.48
2022-08-22T07:34:39.604Z,58.24
2022-08-22T07:37:21.107Z,57.84
2022-08-22T07:39:56.898Z,58.19
2022-08-22T07:42:35.779Z,57.81
2022-08-22T07:45:11.045Z,57.58
2022-08-22T07:47:58.013Z,57.37
2022-08-22T07:50:40.558Z,56.89
2022-08-22T07:53:20.847Z,56.39
2022-08-22T07:55:50.953Z,56.73
2022-08-22T07:58:23.850Z,56.31
2022-08-22T08:00:58.832Z,56.42
2022-08-22T08:03:34.086Z,55.71
2022-08-22T08:06:05.029Z,55.17
2022-08-22T08:08:37.990Z,55.05
2022-08-22T08:11:11.465Z,54.73
2022-08-22T08:13:46.501Z,54.16
2022-08-22T08:16:23.111Z,54.03
2022-08-22T08:19:14.181Z,53.04
2022-08-22T08:21:55.292Z,53.33
2022-08-22T08:24:31.485Z,53.80
2022-08-22T08:27:27.826Z,52.87
2022-08-22T08:30:11.141Z,52.62
2022-08-22T08:32:48.247Z,52.45
2022-08-22T08:35:25.492Z,51.13
2022-08-22T08:38:00.569Z,52.13
2022-08-22T08:41:03.048Z,50.49
2022-08-22T08:43:45.160Z,50.39
2022-08-22T08:46:55.387Z,49.62
2022-08-22T08:49:45.348Z,48.17
2022-08-22T08:52:44.720Z,49.52
2022-08-22T08:55:29.474Z,49.97
2022-08-22T08:58:35.476Z,49.30
2022-08-22T09:01:28.913Z,48.20
2022-08-22T09:04:39.354Z,48.10
2022-08-22T09:07:53.831Z,46.48
2022-08-22T09:10:42.432Z,44.96
2022-08-22T09:13:47.527Z,47.39
2022-08-22T09:16:59.779Z,47.30
2022-08-22T09:19:59.644Z,45.74
2022-08-22T09:23:18.538Z,47.07
2022-08-22T09:25:58.554Z,44.16
2022-08-22T09:28:45.184Z,43.78
2022-08-22T09:31:47.869Z,44.35
2022-08-22T09:34:41.139Z,44.07
2022-08-22T09:37:31.564Z,43.44
2022-08-22T09:43:09.639Z,43.53
2022-08-22T09:45:55.289Z,41.36
2022-08-22T09:49:23.546Z,42.84
2022-08-22T09:52:15.213Z,42.63
2022-08-22T09:55:11.745Z,43.87
2022-08-22T09:58:12.624Z,40.66
2022-08-22T10:01:42.375Z,41.91
2022-08-22T10:08:25.513Z,41.90
2022-08-22T10:11:13.947Z,38.85
2022-08-22T10:14:11.196Z,41.27
2022-08-22T10:17:16.881Z,37.61
2022-08-22T10:20:12.792Z,37.61
2022-08-22T10:22:50.363Z,39.27
2022-08-22T10:25:42.212Z,38.37
2022-08-22T10:28:29.737Z,40.38
2022-08-22T10:31:59.185Z,37.12
2022-08-22T10:34:41.341Z,36.99
2022-08-22T10:37:25.220Z,40.02
2022-08-22T10:40:11.642Z,38.11
2022-08-22T10:42:56.581Z,38.39
2022-08-22T10:45:41.742Z,37.36
2022-08-22T10:48:40.260Z,35.89
2022-08-22T10:51:28.804Z,38.21
2022-08-22T10:54:37.366Z,38.20
2022-08-22T10:57:52.701Z,36.94
2022-08-22T11:00:49.687Z,35.86
2022-08-22T11:03:35.093Z,36.06
2022-08-22T11:06:13.321Z,36.48
2022-08-22T11:15:35.186Z,38.48
2022-08-22T11:18:24.493Z,37.28
2022-08-22T11:21:02.257Z,38.55
2022-08-22T11:23:47.707Z,37.19
2022-08-22T11:26:47.101Z,35.20
2022-08-22T11:29:41.317Z,37.82
2022-08-22T11:32:22.841Z,36.34
2022-08-22T11:35:09.719Z,37.76
2022-08-22T11:41:13.841Z,36.75
2022-08-22T11:44:06.527Z,38.00
2022-08-22T11:46:39.008Z,39.33
2022-08-22T11:49:34.013Z,37.13
2022-08-22T11:52:35.077Z,37.88
2022-08-22T11:55:32.972Z,36.90
2022-08-22T11:58:28.738Z,37.05
2022-08-22T12:01:17.454Z,35.00
2022-08-22T12:04:10.157Z,37.11
2022-08-22T12:06:56.289Z,36.54
2022-08-22T12:09:43.006Z,36.26
2022-08-22T12:12:29.096Z,36.01
2022-08-22T12:15:08.821Z,37.71
2022-08-22T12:18:21.217Z,34.79
2022-08-22T12:21:12.716Z,35.23
2022-08-22T12:24:20.981Z,37.06
2022-08-22T12:27:07.869Z,37.80
2022-08-22T12:29:46.507Z,37.44
2022-08-22T12:32:44.003Z,35.85
2022-08-22T12:35:36.958Z,37.95
2022-08-22T12:38:27.930Z,37.14
2022-08-22T12:41:36.731Z,37.28
2022-08-22T12:44:28.611Z,36.64
2022-08-22T12:47:32.119Z,37.00
2022-08-22T12:50:24.198Z,37.28
2022-08-22T12:53:52.297Z,38.05
2022-08-22T12:56:34.172Z,35.84
2022-08-22T12:59:22.634Z,37.02
2022-08-22T13:01:54.700Z,37.12
2022-08-22T13:04:33.151Z,37.98
2022-08-22T13:07:09.984Z,37.86
2022-08-22T13:09:43.308Z,38.17
2022-08-22T13:12:23.468Z,33.94
2022-08-22T13:14:56.434Z,36.45
2022-08-22T13:17:27.049Z,36.02
2022-08-22T13:20:09.904Z,35.36
2022-08-22T13:22:45.652Z,36.62
2022-08-22T13:25:26.631Z,37.07
2022-08-22T13:27:59.359Z,36.15
2022-08-22T13:30:33.078Z,35.87
2022-08-22T13:33:09.845Z,37.26
2022-08-22T13:35:44.808Z,37.27
2022-08-22T13:38:25.760Z,37.85
2022-08-22T13:41:01.860Z,35.94
2022-08-22T13:43:38.695Z,37.13
2022-08-22T13:46:15.928Z,37.56
2022-08-22T13:48:51.130Z,37.99
2022-08-22T13:51:33.607Z,37.01
2022-08-22T13:54:46.915Z,38.33
2022-08-22T13:57:23.808Z,37.06
2022-08-22T14:00:05.832Z,38.07
2022-08-22T14:03:00.513Z,38.43
2022-08-22T14:05:34.727Z,38.70
2022-08-22T14:08:14.716Z,38.67
2022-08-22T14:10:50.557Z,39.01
2022-08-22T14:13:44.737Z,39.03
2022-08-22T14:16:20.905Z,38.44
2022-08-22T14:18:53.748Z,38.81
2022-08-22T14:21:40.344Z,39.03
2022-08-22T14:24:26.872Z,37.70
2022-08-22T14:26:59.858Z,38.75
2022-08-22T14:29:50.319Z,37.46
2022-08-22T14:32:36.988Z,39.07
2022-08-22T14:35:23.274Z,39.13
2022-08-22T14:38:29.750Z,39.12
2022-08-22T14:41:03.811Z,39.97
2022-08-22T14:43:49.627Z,38.41
2022-08-22T14:46:27.694Z,39.66
2022-08-22T14:49:09.919Z,39.49
2022-08-22T14:51:51.299Z,38.96
2022-08-22T14:54:29.162Z,39.89
2022-08-22T14:57:01.257Z,39.52
2022-08-22T14:59:45.953Z,40.19
2022-08-22T15:02:28.017Z,39.82
2022-08-22T15:05:01.839Z,40.18
2022-08-22T15:07:37.490Z,40.32
2022-08-22T15:10:11.898Z,39.03
2022-08-22T15:12:47.848Z,40.01
2022-08-22T15:15:32.813Z,39.21
2022-08-22T15:18:35.345Z,40.16
2022-08-22T15:21:10.225Z,40.40
2022-08-22T15:23:47.037Z,39.71
2022-08-22T15:26:25.549Z,40.14
2022-08-22T15:29:04.691Z,39.93
2022-08-22T15:31:34.842Z,39.64
2022-08-22T15:34:11.755Z,40.34
2022-08-22T15:37:09.073Z,40.60
2022-08-22T15:40:02.998Z,40.61
2022-08-22T15:42:41.617Z,39.86
2022-08-22T15:45:21.544Z,40.46
2022-08-22T15:47:54.443Z,40.29
2022-08-22T15:50:34.449Z,40.75
2022-08-22T15:53:13.420Z,41.13
2022-08-22T15:56:22.598Z,40.73
2022-08-22T15:59:10.446Z,40.72
2022-08-22T16:01:46.218Z,40.75
2022-08-22T16:04:31.873Z,41.15
2022-08-22T16:07:05.541Z,40.87
2022-08-22T16:09:42.724Z,41.11
2022-08-22T16:12:26.123Z,40.95
2022-08-22T16:14:55.615Z,41.74
2022-08-22T16:17:44.623Z,41.76
2022-08-22T16:20:55.461Z,40.86
2022-08-22T16:24:10.022Z,40.03
2022-08-22T16:26:43.355Z,40.40
2022-08-22T16:29:37.676Z,41.27
2022-08-22T16:32:12.985Z,41.00
2022-08-22T16:34:44.074Z,41.35
2022-08-22T16:37:46.260Z,41.86
2022-08-22T16:40:21.019Z,41.82
2022-08-22T16:43:11.004Z,42.48
2022-08-22T16:45:43.283Z,42.28
2022-08-22T16:48:34.592Z,42.82
2022-08-22T16:51:13.728Z,43.39
2022-08-22T16:54:21.933Z,43.45
2022-08-22T16:57:14.435Z,43.59
2022-08-22T16:59:59.904Z,43.78
2022-08-22T17:02:58.474Z,44.41
2022-08-22T17:05:39.704Z,44.74
2022-08-22T17:08:20.988Z,44.75
2022-08-22T17:11:05.390Z,45.41
2022-08-22T17:13:56.591Z,45.48
2022-08-22T17:16:37.037Z,45.26
2022-08-22T17:19:17.667Z,45.70
2022-08-22T17:21:55.853Z,45.67
2022-08-22T17:24:34.381Z,45.45
2022-08-22T17:27:07.991Z,45.96
2022-08-22T17:29:48.326Z,46.26
2022-08-22T17:32:30.594Z,46.30
2022-08-22T17:35:16.354Z,46.44
2022-08-22T17:37:57.330Z,46.51
2022-08-22T17:40:35.632Z,46.59
2022-08-22T17:43:27.229Z,47.61
2022-08-22T17:46:14.467Z,47.41
2022-08-22T17:48:52.671Z,47.46
2022-08-22T17:51:29.100Z,47.49
2022-08-22T17:54:03.068Z,47.38
2022-08-22T17:56:42.028Z,47.45
2022-08-22T17:59:20.998Z,47.71
2022-08-22T18:01:54.663Z,48.14
2022-08-22T18:04:36.717Z,47.99
2022-08-22T18:07:25.568Z,48.48
2022-08-22T18:10:00.261Z,48.22
2022-08-22T18:12:38.852Z,48.11
2022-08-22T18:15:14.588Z,48.70
2022-08-22T18:18:09.185Z,48.85
2022-08-22T18:21:06.333Z,48.53
2022-08-22T18:23:43.724Z,48.82
2022-08-22T18:26:37.704Z,49.02
2022-08-22T18:29:32.802Z,49.14
2022-08-22T18:32:22.173Z,48.54
2022-08-22T18:35:14.779Z,49.13
2022-08-22T18:38:00.818Z,49.09
2022-08-22T18:40:49.768Z,49.39
2022-08-22T18:43:44.970Z,49.20
2022-08-22T18:46:45.478Z,49.16
2022-08-22T18:54:01.360Z,49.41
2022-08-22T19:00:23.797Z,49.96
2022-08-22T19:03:30.550Z,50.33
2022-08-22T19:06:55.173Z,50.03
2022-08-22T19:13:57.570Z,50.72
2022-08-22T19:16:48.058Z,50.03
2022-08-22T19:19:23.406Z,50.73
2022-08-22T19:22:28.725Z,50.58
2022-08-22T19:25:29.799Z,50.16
2022-08-22T19:28:27.298Z,50.79
2022-08-22T19:31:28.814Z,50.80
2022-08-22T19:34:36.909Z,50.94
2022-08-22T19:37:34.854Z,51.29
2022-08-22T19:41:01.014Z,50.68
2022-08-22T19:44:14.589Z,50.76
2022-08-22T19:47:09.825Z,51.08
2022-08-22T19:50:18.824Z,51.12
2022-08-22T19:57:10.037Z,51.30
2022-08-22T20:00:00.500Z,51.24
2022-08-22T20:02:53.698Z,50.98
2022-08-22T20:05:39.343Z,51.43
2022-08-22T20:08:40.373Z,51.07
2022-08-22T20:11:29.231Z,51.26
2022-08-22T20:14:30.553Z,51.63
2022-08-22T20:17:10.629Z,51.72
2022-08-22T20:22:44.305Z,51.65
2022-08-22T20:25:42.861Z,51.76
2022-08-22T20:28:11.327Z,51.57
2022-08-22T20:30:43.316Z,51.89
2022-08-22T20:33:17.609Z,51.61
2022-08-22T20:35:53.016Z,51.34
2022-08-22T20:38:25.511Z,51.60
2022-08-22T20:41:00.775Z,51.86
2022-08-22T20:43:35.300Z,51.87
2022-08-22T20:46:22.329Z,51.64
2022-08-22T20:48:55.711Z,51.78
2022-08-22T20:51:27.188Z,52.24
2022-08-22T20:53:57.253Z,51.91
2022-08-22T20:56:37.678Z,52.26
2022-08-22T20:59:30.615Z,52.09
2022-08-22T21:02:07.658Z,51.95
2022-08-22T21:04:42.992Z,52.09
2022-08-22T21:07:12.241Z,52.06
2022-08-22T21:09:58.664Z,52.26
2022-08-22T21:12:27.768Z,52.18
2022-08-22T21:14:55.675Z,52.72
2022-08-22T21:17:27.254Z,53.18
2022-08-22T21:19:57.894Z,52.63
2022-08-22T21:22:29.939Z,52.57
2022-08-22T21:25:02.223Z,53.17
2022-08-22T21:27:32.776Z,52.83
2022-08-22T21:30:02.530Z,52.99
2022-08-22T21:32:34.489Z,52.80
2022-08-22T21:35:04.300Z,53.21
2022-08-22T21:37:39.872Z,53.45
2022-08-22T21:40:16.947Z,54.01
2022-08-22T21:42:58.424Z,53.94
2022-08-22T21:45:30.216Z,52.91
2022-08-22T21:47:58.673Z,53.09
2022-08-22T21:50:31.781Z,53.99
2022-08-22T21:53:12.042Z,53.80
2022-08-22T21:55:44.473Z,54.57
2022-08-22T21:58:35.621Z,55.25
2022-08-22T22:01:29.710Z,55.59
2022-08-22T22:03:59.453Z,54.70
2022-08-22T22:06:28.614Z,55.08
2022-08-22T22:08:57.861Z,55.11
2022-08-22T22:11:26.823Z,55.24
2022-08-22T22:13:54.947Z,55.15
2022-08-22T22:16:26.766Z,55.54
2022-08-22T22:18:54.729Z,54.97
2022-08-22T22:21:22.787Z,55.09
2022-08-22T22:23:50.724Z,55.34
2022-08-22T22:26:21.011Z,55.90
2022-08-22T22:28:50.195Z,55.73
2022-08-22T22:31:19.261Z,56.29
2022-08-22T22:33:47.406Z,56.88
2022-08-22T22:36:19.189Z,56.18
2022-08-22T22:38:48.121Z,56.16
2022-08-22T22:41:15.999Z,55.83
2022-08-22T22:43:45.254Z,56.89
2022-08-22T22:46:12.969Z,57.08
2022-08-22T22:48:40.835Z,56.59
2022-08-22T22:51:10.531Z,57.52
2022-08-22T22:53:42.691Z,57.26
2022-08-22T22:56:14.151Z,58.03
2022-08-22T22:58:45.666Z,57.70
2022-08-22T23:01:18.780Z,57.70
2022-08-22T23:03:47.602Z,57.38
2022-08-22T23:06:18.235Z,57.34
2022-08-22T23:08:46.651Z,58.11
2022-08-22T23:11:19.136Z,59.06
2022-08-22T23:13:49.529Z,58.06
2022-08-22T23:16:21.592Z,58.38
2022-08-22T23:18:50.113Z,58.02
2022-08-22T23:21:21.214Z,57.90
2022-08-22T23:23:50.377Z,58.72
2022-08-22T23:26:18.408Z,58.92
2022-08-22T23:28:46.511Z,58.30
2022-08-22T23:31:18.317Z,58.06
2022-08-22T23:33:47.371Z,58.79
2022-08-22T23:36:17.999Z,58.62
2022-08-22T23:38:46.824Z,59.56
2022-08-22T23:41:17.660Z,59.51
2022-08-22T23:43:48.185Z,59.84
2022-08-22T23:46:19.132Z,59.76
2022-08-22T23:48:47.691Z,59.25
2022-08-22T23:51:18.062Z,59.24
2022-08-22T23:53:50.748Z,60.25
2022-08-22T23:56:22.299Z,61.11
2022-08-22T23:58:51.218Z,60.70
